Time;durP1;ratioP1;P1;durP2;ratioP2;P2;SDS_P1;SDS_P2;PMS_P1;PMS_P2;Temp;Humidity;BMP_temperature;BMP_pressure;BME280_temperature;BME280_humidity;BME280_pressure;Samples;Min_cycle;Max_cycle;Signal;HPM_P1;HPM_P2
2023/08/19 00:01:03;;;;;;;43.30;33.63;;;;;;;;;;6097153;23;20025;-85
2023/08/19 00:03:30;;;;;;;46.05;35.20;;;;;;;;;;6071549;23;20113;-86
2023/08/19 00:05:56;;;;;;;49.35;34.80;;;;;;;;;;6071247;23;20369;-85
2023/08/19 00:08:22;;;;;;;45.22;34.42;;;;;;;;;;6071454;23;20495;-85
2023/08/19 00:10:48;;;;;;;46.85;34.83;;;;;;;;;;6071397;23;20040;-85
2023/08/19 00:13:14;;;;;;;44.75;34.42;;;;;;;;;;6095419;23;20018;-85
2023/08/19 00:15:40;;;;;;;42.13;32.90;;;;;;;;;;6071232;23;20335;-85
2023/08/19 00:18:06;;;;;;;46.38;34.47;;;;;;;;;;6072016;23;20030;-85
2023/08/19 00:20:33;;;;;;;45.83;34.90;;;;;;;;;;6071613;23;20030;-85
2023/08/19 00:22:59;;;;;;;44.75;34.15;;;;;;;;;;6071166;23;20102;-85
2023/08/19 00:25:26;;;;;;;45.55;34.35;;;;;;;;;;6095182;23;20022;-85
2023/08/19 00:27:52;;;;;;;41.42;33.33;;;;;;;;;;6071298;23;20027;-85
2023/08/19 00:30:19;;;;;;;42.38;32.85;;;;;;;;;;6070929;23;20015;-85
2023/08/19 00:32:46;;;;;;;42.58;33.17;;;;;;;;;;6094494;23;20089;-85
2023/08/19 00:35:16;;;;;;;46.83;34.60;;;;;;;;;;6094551;23;20395;-85
2023/08/19 00:37:42;;;;;;;43.08;33.25;;;;;;;;;;6094860;23;20070;-85
2023/08/19 00:40:13;;;;;;;43.40;33.75;;;;;;;;;;6096181;23;20019;-85
2023/08/19 00:42:39;;;;;;;44.33;33.28;;;;;;;;;;6070806;23;20022;-85
2023/08/19 00:45:06;;;;;;;37.80;30.77;;;;;;;;;;6094265;23;20385;-85
2023/08/19 00:47:32;;;;;;;39.78;31.52;;;;;;;;;;6096903;23;20097;-85
2023/08/19 00:50:01;;;;;;;36.45;30.05;;;;;;;;;;6095078;23;20022;-85
2023/08/19 00:52:27;;;;;;;43.85;32.13;;;;;;;;;;6071144;23;20018;-85
2023/08/19 00:54:53;;;;;;;43.25;33.25;;;;;;;;;;6094439;23;20018;-85
2023/08/19 00:57:19;;;;;;;43.50;32.88;;;;;;;;;;6070760;23;20014;-85
2023/08/19 00:59:45;;;;;;;42.92;32.92;;;;;;;;;;6071012;23;20018;-86
2023/08/19 01:02:12;;;;;;;42.40;32.60;;;;;;;;;;6070679;23;20447;-85
2023/08/19 01:04:38;;;;;;;43.65;31.90;;;;;;;;;;6093892;23;20033;-85
2023/08/19 01:07:10;;;;;;;41.05;32.92;;;;;;;;;;6070874;23;20137;-85
2023/08/19 01:09:42;;;;;;;47.15;33.55;;;;;;;;;;6070940;23;20018;-85
2023/08/19 01:12:17;;;;;;;42.72;33.70;;;;;;;;;;6070479;23;20033;-85
2023/08/19 01:14:55;;;;;;;46.05;33.85;;;;;;;;;;6070315;23;20022;-85
2023/08/19 01:17:25;;;;;;;41.25;32.20;;;;;;;;;;6070507;23;20325;-85
2023/08/19 01:19:52;;;;;;;40.78;31.73;;;;;;;;;;6070558;23;20026;-85
2023/08/19 01:22:27;;;;;;;44.83;35.00;;;;;;;;;;6094175;23;20022;-86
2023/08/19 01:24:54;;;;;;;48.33;35.72;;;;;;;;;;6070543;23;20027;-85
2023/08/19 01:27:24;;;;;;;42.45;32.70;;;;;;;;;;6070815;23;20054;-85
2023/08/19 01:29:51;;;;;;;40.05;31.58;;;;;;;;;;6070863;23;20014;-85
2023/08/19 01:32:17;;;;;;;42.08;33.55;;;;;;;;;;6094178;23;20029;-86
2023/08/19 01:34:44;;;;;;;46.78;34.72;;;;;;;;;;6070173;23;20018;-85
2023/08/19 01:37:13;;;;;;;43.13;34.33;;;;;;;;;;6070374;23;20014;-85
2023/08/19 01:39:40;;;;;;;44.30;34.30;;;;;;;;;;6096079;23;20025;-85
2023/08/19 01:42:08;;;;;;;49.15;35.00;;;;;;;;;;6070821;23;20026;-85
2023/08/19 01:44:34;;;;;;;48.03;34.20;;;;;;;;;;6069938;23;20133;-86
2023/08/19 01:47:12;;;;;;;45.47;35.20;;;;;;;;;;6096338;23;20022;-85
2023/08/19 01:49:44;;;;;;;45.78;33.67;;;;;;;;;;6094589;23;20023;-85
2023/08/19 01:52:11;;;;;;;44.97;33.90;;;;;;;;;;6070622;23;20097;-86
2023/08/19 01:54:37;;;;;;;47.70;34.15;;;;;;;;;;6070220;23;20093;-85
2023/08/19 01:57:03;;;;;;;45.60;34.30;;;;;;;;;;6095152;23;20019;-85
2023/08/19 01:59:32;;;;;;;45.17;34.83;;;;;;;;;;6070341;23;20073;-85
2023/08/19 02:01:58;;;;;;;51.20;34.53;;;;;;;;;;6070813;23;20030;-85
2023/08/19 02:04:24;;;;;;;49.42;33.20;;;;;;;;;;6075091;23;20025;-85
2023/08/19 02:06:50;;;;;;;45.58;33.95;;;;;;;;;;6074616;23;20026;-85
2023/08/19 02:09:16;;;;;;;44.55;33.55;;;;;;;;;;6097780;23;20025;-85
2023/08/19 02:11:43;;;;;;;45.25;34.28;;;;;;;;;;6096628;23;20018;-85
2023/08/19 02:14:11;;;;;;;42.67;33.47;;;;;;;;;;6073173;23;20018;-85
2023/08/19 02:16:37;;;;;;;47.63;34.13;;;;;;;;;;6096227;23;20148;-85
2023/08/19 02:19:04;;;;;;;46.90;34.40;;;;;;;;;;6072530;23;20462;-85
2023/08/19 02:21:30;;;;;;;45.53;34.42;;;;;;;;;;6096274;23;20050;-86
2023/08/19 02:23:58;;;;;;;44.90;35.40;;;;;;;;;;6096570;23;20070;-86
2023/08/19 02:26:25;;;;;;;44.78;33.92;;;;;;;;;;6073631;23;20024;-86
2023/08/19 02:28:54;;;;;;;43.83;33.78;;;;;;;;;;6073063;23;20018;-86
2023/08/19 02:31:23;;;;;;;44.63;34.70;;;;;;;;;;6096207;23;20022;-86
2023/08/19 02:33:49;;;;;;;43.05;32.55;;;;;;;;;;6072077;23;20063;-85
2023/08/19 02:36:15;;;;;;;42.85;32.85;;;;;;;;;;6072193;23;20019;-85
2023/08/19 02:38:41;;;;;;;45.13;33.05;;;;;;;;;;6095662;23;20026;-86
2023/08/19 02:41:08;;;;;;;46.72;33.03;;;;;;;;;;6071898;23;20024;-86
2023/08/19 02:43:34;;;;;;;46.88;33.85;;;;;;;;;;6071621;23;20352;-86
2023/08/19 02:46:02;;;;;;;44.83;33.78;;;;;;;;;;6095687;23;20088;-86
2023/08/19 02:48:28;;;;;;;43.30;33.47;;;;;;;;;;6072250;23;20045;-86
2023/08/19 02:50:54;;;;;;;43.53;33.40;;;;;;;;;;6071969;23;20025;-86
2023/08/19 02:53:21;;;;;;;46.33;32.88;;;;;;;;;;6071714;23;20025;-85
2023/08/19 02:55:47;;;;;;;44.90;33.20;;;;;;;;;;6095885;23;20346;-86
2023/08/19 02:58:13;;;;;;;46.47;33.97;;;;;;;;;;6071646;23;20059;-86
2023/08/19 03:00:40;;;;;;;46.40;34.60;;;;;;;;;;6071712;23;20328;-85
2023/08/19 03:03:06;;;;;;;44.38;33.50;;;;;;;;;;6070945;23;20072;-86
2023/08/19 03:05:39;;;;;;;46.65;32.70;;;;;;;;;;6070809;23;20041;-86
2023/08/19 03:08:06;;;;;;;47.22;34.33;;;;;;;;;;6097186;23;20015;-85
2023/08/19 03:10:35;;;;;;;46.75;33.05;;;;;;;;;;6071367;23;20033;-85
2023/08/19 03:13:02;;;;;;;48.08;34.42;;;;;;;;;;6071551;23;20057;-86
2023/08/19 03:15:28;;;;;;;43.90;33.13;;;;;;;;;;6095638;23;20026;-85
2023/08/19 03:17:54;;;;;;;43.75;33.15;;;;;;;;;;6071900;23;20018;-86
2023/08/19 03:20:21;;;;;;;44.17;32.35;;;;;;;;;;6071350;23;20019;-86
2023/08/19 03:22:47;;;;;;;43.78;32.78;;;;;;;;;;6071357;23;20023;-85
2023/08/19 03:25:15;;;;;;;45.05;32.95;;;;;;;;;;6071401;23;20113;-85
2023/08/19 03:27:41;;;;;;;42.90;33.00;;;;;;;;;;6072117;23;20077;-86
2023/08/19 03:30:08;;;;;;;44.38;34.05;;;;;;;;;;6095478;23;20021;-86
2023/08/19 03:32:34;;;;;;;48.08;33.65;;;;;;;;;;6096530;23;20019;-85
2023/08/19 03:35:00;;;;;;;47.08;34.72;;;;;;;;;;6096958;23;20030;-85
2023/08/19 03:37:26;;;;;;;46.38;33.88;;;;;;;;;;6095151;23;20024;-85
2023/08/19 03:39:53;;;;;;;44.13;33.28;;;;;;;;;;6070769;23;20101;-85
2023/08/19 03:42:19;;;;;;;45.40;33.67;;;;;;;;;;6095707;23;20129;-85
2023/08/19 03:44:45;;;;;;;44.72;32.70;;;;;;;;;;6095521;23;20090;-85
2023/08/19 03:47:11;;;;;;;45.58;33.05;;;;;;;;;;6094875;23;20022;-85
2023/08/19 03:49:38;;;;;;;45.75;33.33;;;;;;;;;;6071355;23;20019;-85
2023/08/19 03:52:07;;;;;;;44.72;33.15;;;;;;;;;;6095437;23;20321;-85
2023/08/19 03:54:33;;;;;;;47.83;34.78;;;;;;;;;;6095474;23;20387;-86
2023/08/19 03:57:00;;;;;;;43.63;34.22;;;;;;;;;;6095158;23;20022;-85
2023/08/19 03:59:26;;;;;;;43.58;32.83;;;;;;;;;;6094803;23;20388;-86
2023/08/19 04:01:52;;;;;;;45.28;32.05;;;;;;;;;;6095565;23;20089;-85
2023/08/19 04:04:18;;;;;;;44.17;32.47;;;;;;;;;;6070755;23;20113;-86
2023/08/19 04:06:44;;;;;;;45.13;32.13;;;;;;;;;;6070616;23;20014;-86
2023/08/19 04:09:11;;;;;;;45.38;32.95;;;;;;;;;;6072507;23;20028;-86
2023/08/19 04:11:38;;;;;;;44.85;32.45;;;;;;;;;;6100136;23;20029;-85
2023/08/19 04:14:05;;;;;;;39.78;32.13;;;;;;;;;;6097029;23;20489;-85
2023/08/19 04:16:32;;;;;;;43.35;31.77;;;;;;;;;;6097520;23;20015;-85
2023/08/19 04:18:58;;;;;;;41.42;32.97;;;;;;;;;;6095257;23;20086;-86
2023/08/19 04:21:24;;;;;;;40.45;31.90;;;;;;;;;;6071230;23;20503;-86
2023/08/19 04:23:51;;;;;;;41.88;32.72;;;;;;;;;;6095663;23;20074;-85
2023/08/19 04:26:17;;;;;;;40.53;31.20;;;;;;;;;;6095640;23;20026;-85
2023/08/19 04:28:43;;;;;;;40.72;31.63;;;;;;;;;;6070797;23;20073;-86
2023/08/19 04:31:10;;;;;;;41.22;31.40;;;;;;;;;;6070640;23;20030;-86
2023/08/19 04:33:36;;;;;;;45.47;32.83;;;;;;;;;;6070639;23;20507;-85
2023/08/19 04:36:03;;;;;;;42.10;31.83;;;;;;;;;;6097402;23;20097;-86
2023/08/19 04:38:30;;;;;;;43.03;32.15;;;;;;;;;;6093774;23;20451;-85
2023/08/19 04:40:56;;;;;;;39.50;30.58;;;;;;;;;;6070430;23;20317;-85
2023/08/19 04:43:22;;;;;;;40.53;31.27;;;;;;;;;;6094574;23;20029;-85
2023/08/19 04:45:48;;;;;;;38.80;29.48;;;;;;;;;;6096433;23;20427;-85
2023/08/19 04:48:15;;;;;;;37.80;29.92;;;;;;;;;;6095212;23;20022;-86
2023/08/19 04:50:41;;;;;;;40.67;30.42;;;;;;;;;;6094045;23;20026;-86
2023/08/19 04:53:07;;;;;;;38.40;30.50;;;;;;;;;;6094916;23;20026;-85
2023/08/19 04:55:33;;;;;;;35.65;28.15;;;;;;;;;;6094670;23;20364;-85
2023/08/19 04:57:59;;;;;;;37.88;28.38;;;;;;;;;;6094882;23;20061;-86
2023/08/19 05:00:25;;;;;;;40.17;29.70;;;;;;;;;;6095127;23;20019;-86
2023/08/19 05:02:51;;;;;;;38.50;29.27;;;;;;;;;;6070604;23;20081;-86
2023/08/19 05:05:18;;;;;;;36.85;28.98;;;;;;;;;;6070475;23;20440;-86
2023/08/19 05:07:44;;;;;;;35.67;27.88;;;;;;;;;;6094311;23;20049;-85
2023/08/19 05:10:10;;;;;;;33.22;27.13;;;;;;;;;;6094374;23;20025;-85
2023/08/19 05:12:36;;;;;;;32.83;27.52;;;;;;;;;;6096380;23;20443;-86
2023/08/19 05:15:03;;;;;;;35.53;26.75;;;;;;;;;;6071152;23;20045;-85
2023/08/19 05:17:30;;;;;;;32.95;26.25;;;;;;;;;;6071143;23;20383;-85
2023/08/19 05:19:56;;;;;;;31.60;26.33;;;;;;;;;;6070600;23;20019;-85
2023/08/19 05:22:22;;;;;;;32.85;26.48;;;;;;;;;;6094846;23;20026;-86
2023/08/19 05:24:51;;;;;;;34.65;26.73;;;;;;;;;;6094811;23;20368;-86
2023/08/19 05:27:17;;;;;;;30.20;25.70;;;;;;;;;;6094690;23;20029;-86
2023/08/19 05:29:47;;;;;;;28.50;24.30;;;;;;;;;;6070330;23;20077;-85
2023/08/19 05:32:13;;;;;;;33.25;25.60;;;;;;;;;;6094719;23;20400;-85
2023/08/19 05:34:39;;;;;;;30.80;24.52;;;;;;;;;;6093688;23;20538;-85
2023/08/19 05:37:05;;;;;;;30.77;23.73;;;;;;;;;;6094692;23;20018;-85
2023/08/19 05:39:31;;;;;;;32.88;26.15;;;;;;;;;;6070466;23;20398;-85
2023/08/19 05:41:57;;;;;;;30.92;23.75;;;;;;;;;;6095623;23;20101;-85
2023/08/19 05:44:23;;;;;;;29.10;23.75;;;;;;;;;;6072617;23;20077;-85
2023/08/19 05:46:51;;;;;;;26.88;22.52;;;;;;;;;;6072610;23;20543;-85
2023/08/19 05:49:17;;;;;;;25.75;22.65;;;;;;;;;;6072930;23;20053;-85
2023/08/19 05:51:43;;;;;;;28.77;23.05;;;;;;;;;;6096236;23;20069;-85
2023/08/19 05:54:09;;;;;;;26.45;22.77;;;;;;;;;;6095898;23;20105;-85
2023/08/19 05:56:35;;;;;;;23.83;20.48;;;;;;;;;;6071921;23;20022;-85
2023/08/19 05:59:01;;;;;;;28.30;22.48;;;;;;;;;;6098180;23;20033;-85
2023/08/19 06:01:27;;;;;;;27.60;21.00;;;;;;;;;;6072422;23;20332;-85
2023/08/19 06:03:53;;;;;;;25.50;22.05;;;;;;;;;;6072144;23;20089;-85
2023/08/19 06:06:20;;;;;;;27.15;21.70;;;;;;;;;;6097603;23;20469;-86
2023/08/19 06:08:46;;;;;;;23.23;19.20;;;;;;;;;;6096875;23;20471;-85
2023/08/19 06:11:12;;;;;;;23.73;20.98;;;;;;;;;;6071867;23;20345;-85
2023/08/19 06:13:38;;;;;;;26.15;20.65;;;;;;;;;;6096335;23;20018;-85
2023/08/19 06:16:05;;;;;;;24.48;20.77;;;;;;;;;;6101145;23;20343;-85
2023/08/19 06:18:32;;;;;;;27.00;20.35;;;;;;;;;;6100664;23;20048;-85
2023/08/19 06:20:58;;;;;;;24.70;20.85;;;;;;;;;;6097365;23;20018;-85
2023/08/19 06:23:24;;;;;;;24.60;19.75;;;;;;;;;;6071829;23;20324;-85
2023/08/19 06:25:51;;;;;;;27.58;20.10;;;;;;;;;;6072141;23;20053;-85
2023/08/19 06:28:18;;;;;;;25.83;19.60;;;;;;;;;;6072281;23;20018;-85
2023/08/19 06:30:45;;;;;;;23.15;20.27;;;;;;;;;;6096793;23;20328;-85
2023/08/19 06:33:11;;;;;;;24.17;18.90;;;;;;;;;;6072086;23;20328;-86
2023/08/19 06:35:37;;;;;;;22.23;19.65;;;;;;;;;;6072208;23;20105;-86
2023/08/19 06:38:06;;;;;;;21.80;19.42;;;;;;;;;;6072228;23;20106;-85
2023/08/19 06:40:36;;;;;;;23.67;20.05;;;;;;;;;;6097112;23;20030;-86
2023/08/19 06:43:04;;;;;;;23.70;19.30;;;;;;;;;;6072146;23;20045;-85
2023/08/19 06:45:30;;;;;;;23.00;18.60;;;;;;;;;;6072012;23;20094;-85
2023/08/19 06:47:58;;;;;;;24.48;19.10;;;;;;;;;;6072177;23;20038;-85
2023/08/19 06:50:24;;;;;;;28.20;19.65;;;;;;;;;;6071875;23;20018;-85
2023/08/19 06:52:50;;;;;;;20.98;18.75;;;;;;;;;;6097498;23;20022;-85
2023/08/19 06:55:17;;;;;;;23.58;19.42;;;;;;;;;;6071660;23;20022;-85
2023/08/19 06:58:06;;;;;;;23.77;18.17;;;;;;;;;;6071635;23;20018;-86
2023/08/19 07:00:34;;;;;;;21.75;18.33;;;;;;;;;;6088084;23;20018;-86
2023/08/19 07:03:00;;;;;;;23.45;17.63;;;;;;;;;;6071612;23;20014;-85
2023/08/19 07:05:27;;;;;;;23.00;17.73;;;;;;;;;;6072358;23;20025;-86
2023/08/19 07:07:56;;;;;;;19.42;17.25;;;;;;;;;;6095899;23;20025;-85
2023/08/19 07:10:22;;;;;;;20.70;17.90;;;;;;;;;;6095992;23;20066;-86
2023/08/19 07:12:48;;;;;;;20.75;18.15;;;;;;;;;;6071282;23;20018;-85
2023/08/19 07:15:15;;;;;;;21.65;16.40;;;;;;;;;;6097258;23;20061;-86
2023/08/19 07:17:45;;;;;;;20.88;16.95;;;;;;;;;;6095315;23;20018;-85
2023/08/19 07:20:18;;;;;;;18.60;16.60;;;;;;;;;;6070966;23;20062;-86
2023/08/19 07:22:48;;;;;;;20.42;16.02;;;;;;;;;;6095593;23;20022;-86
2023/08/19 07:25:14;;;;;;;18.55;16.33;;;;;;;;;;6096817;23;20312;-86
2023/08/19 07:27:43;;;;;;;19.92;15.73;;;;;;;;;;6072160;23;20014;-86
2023/08/19 07:30:12;;;;;;;19.80;17.73;;;;;;;;;;6074894;23;20018;-85
2023/08/19 07:32:39;;;;;;;21.27;17.02;;;;;;;;;;6094539;23;20094;-85
2023/08/19 07:35:05;;;;;;;19.92;16.95;;;;;;;;;;6071410;23;20523;-85
2023/08/19 07:37:32;;;;;;;22.33;17.40;;;;;;;;;;6095495;23;20015;-85
2023/08/19 07:39:59;;;;;;;19.33;15.98;;;;;;;;;;6096980;23;20073;-85
2023/08/19 07:42:27;;;;;;;19.60;16.17;;;;;;;;;;6094485;23;20093;-86
2023/08/19 07:44:53;;;;;;;20.70;16.23;;;;;;;;;;6094968;23;20510;-85
2023/08/19 07:47:19;;;;;;;19.00;15.68;;;;;;;;;;6071466;23;20097;-85
2023/08/19 07:49:45;;;;;;;22.17;15.93;;;;;;;;;;6071768;23;20089;-85
2023/08/19 07:52:11;;;;;;;18.88;15.63;;;;;;;;;;6071910;23;20018;-86
2023/08/19 07:54:37;;;;;;;18.50;15.10;;;;;;;;;;6096635;23;20014;-85
2023/08/19 07:57:03;;;;;;;18.20;14.80;;;;;;;;;;6094860;23;20061;-85
2023/08/19 07:59:29;;;;;;;17.60;14.60;;;;;;;;;;6070719;23;20534;-85
2023/08/19 08:01:58;;;;;;;17.23;14.45;;;;;;;;;;6071847;23;20070;-85
2023/08/19 08:04:24;;;;;;;17.27;14.32;;;;;;;;;;6095198;23;20551;-85
2023/08/19 08:06:51;;;;;;;19.30;15.18;;;;;;;;;;6095394;23;20066;-86
2023/08/19 08:09:17;;;;;;;16.77;13.65;;;;;;;;;;6097129;23;20022;-86
2023/08/19 08:11:48;;;;;;;20.30;15.43;;;;;;;;;;6070536;23;20125;-86
2023/08/19 08:14:14;;;;;;;18.38;14.07;;;;;;;;;;6070442;23;20022;-86
2023/08/19 08:16:40;;;;;;;17.25;14.10;;;;;;;;;;6071439;23;20499;-86
2023/08/19 08:19:06;;;;;;;18.90;13.05;;;;;;;;;;6070737;23;20057;-86
2023/08/19 08:21:33;;;;;;;18.17;13.07;;;;;;;;;;6076092;23;20029;-87
2023/08/19 08:24:02;;;;;;;19.17;13.15;;;;;;;;;;6074147;23;20196;-87
2023/08/19 08:26:28;;;;;;;16.67;12.75;;;;;;;;;;6074758;23;20019;-86
2023/08/19 08:28:54;;;;;;;17.27;12.95;;;;;;;;;;6073103;23;20015;-86
2023/08/19 08:31:23;;;;;;;18.55;12.73;;;;;;;;;;6097176;23;20026;-86
2023/08/19 08:33:49;;;;;;;14.38;12.65;;;;;;;;;;6073686;23;20050;-86
2023/08/19 08:36:15;;;;;;;14.35;12.32;;;;;;;;;;6098471;23;20300;-86
2023/08/19 08:38:50;;;;;;;14.48;12.23;;;;;;;;;;6097942;23;20102;-87
2023/08/19 08:41:18;;;;;;;15.50;12.00;;;;;;;;;;6074022;23;20023;-86
2023/08/19 08:43:48;;;;;;;14.10;11.57;;;;;;;;;;6097229;23;20336;-86
2023/08/19 08:46:15;;;;;;;12.88;11.45;;;;;;;;;;6074585;23;20022;-86
2023/08/19 08:48:42;;;;;;;15.85;12.27;;;;;;;;;;6096352;23;20014;-86
2023/08/19 08:51:22;;;;;;;13.70;11.90;;;;;;;;;;6095632;23;20030;-86
2023/08/19 08:53:49;;;;;;;17.83;11.95;;;;;;;;;;6072080;23;20026;-86
2023/08/19 08:56:15;;;;;;;14.82;11.43;;;;;;;;;;6098166;23;20018;-85
2023/08/19 08:58:41;;;;;;;14.73;12.00;;;;;;;;;;6097180;23;20058;-85
2023/08/19 09:01:08;;;;;;;13.52;11.85;;;;;;;;;;6072993;23;20022;-85
2023/08/19 09:03:34;;;;;;;13.40;11.48;;;;;;;;;;6072239;23;20022;-85
2023/08/19 09:06:15;;;;;;;13.27;11.68;;;;;;;;;;6096488;23;20030;-86
2023/08/19 09:08:43;;;;;;;14.90;12.60;;;;;;;;;;6073362;23;20447;-85
2023/08/19 09:11:11;;;;;;;13.70;12.05;;;;;;;;;;6098748;23;20018;-85
2023/08/19 09:13:38;;;;;;;15.32;12.55;;;;;;;;;;6096713;23;20030;-85
2023/08/19 09:16:10;;;;;;;14.18;12.65;;;;;;;;;;6098524;23;20014;-86
2023/08/19 09:18:36;;;;;;;15.95;12.68;;;;;;;;;;6074990;23;20018;-85
2023/08/19 09:21:02;;;;;;;15.77;12.82;;;;;;;;;;6099167;23;20018;-86
2023/08/19 09:23:32;;;;;;;14.93;13.00;;;;;;;;;;6098861;23;20018;-85
2023/08/19 09:25:59;;;;;;;17.55;14.07;;;;;;;;;;6097446;23;20025;-86
2023/08/19 09:28:25;;;;;;;20.42;14.25;;;;;;;;;;6096563;23;20462;-85
2023/08/19 09:30:52;;;;;;;16.13;13.23;;;;;;;;;;6098408;23;20495;-86
2023/08/19 09:33:24;;;;;;;19.10;13.85;;;;;;;;;;6072070;23;20023;-86
2023/08/19 09:35:57;;;;;;;15.85;13.52;;;;;;;;;;6096394;23;20525;-86
2023/08/19 09:38:24;;;;;;;15.27;13.68;;;;;;;;;;6096798;23;20015;-87
2023/08/19 09:40:57;;;;;;;16.77;13.68;;;;;;;;;;6096675;23;20089;-86
2023/08/19 09:43:23;;;;;;;15.20;13.23;;;;;;;;;;6096064;23;20391;-85
2023/08/19 09:45:50;;;;;;;16.35;13.68;;;;;;;;;;6096658;23;20029;-85
2023/08/19 09:48:16;;;;;;;15.15;13.25;;;;;;;;;;6096595;23;20074;-87
2023/08/19 09:50:45;;;;;;;14.25;12.23;;;;;;;;;;6072854;23;20030;-87
2023/08/19 09:53:14;;;;;;;15.32;13.43;;;;;;;;;;6072406;23;20022;-86
2023/08/19 09:55:44;;;;;;;15.73;12.30;;;;;;;;;;6098159;23;20019;-87
2023/08/19 09:58:10;;;;;;;16.95;12.85;;;;;;;;;;6072719;23;20444;-87
2023/08/19 10:00:37;;;;;;;16.05;12.80;;;;;;;;;;6071557;23;20018;-86
2023/08/19 10:03:03;;;;;;;17.17;13.43;;;;;;;;;;6096316;23;20368;-87
2023/08/19 10:05:32;;;;;;;14.98;13.15;;;;;;;;;;6072249;23;20447;-86
2023/08/19 10:08:08;;;;;;;14.55;12.77;;;;;;;;;;6071152;23;20022;-87
2023/08/19 10:10:37;;;;;;;16.20;13.13;;;;;;;;;;6096702;23;20034;-87
2023/08/19 10:13:04;;;;;;;15.05;13.05;;;;;;;;;;6096619;23;20018;-87
2023/08/19 10:15:33;;;;;;;14.13;12.57;;;;;;;;;;6096677;23;20022;-87
2023/08/19 10:18:01;;;;;;;15.05;13.27;;;;;;;;;;6072491;23;20018;-87
2023/08/19 10:20:29;;;;;;;14.20;12.73;;;;;;;;;;6071755;23;20120;-86
2023/08/19 10:22:58;;;;;;;15.27;12.88;;;;;;;;;;6072240;23;20435;-86
2023/08/19 10:25:24;;;;;;;15.52;12.95;;;;;;;;;;6072839;23;20107;-87
2023/08/19 10:27:50;;;;;;;13.82;12.30;;;;;;;;;;6075026;23;20532;-86
2023/08/19 10:30:31;;;;;;;14.95;13.35;;;;;;;;;;6100219;23;20022;-85
2023/08/19 10:33:03;;;;;;;15.85;14.02;;;;;;;;;;6099252;23;20029;-86
2023/08/19 10:35:49;;;;;;;16.30;14.02;;;;;;;;;;6096103;23;20404;-86
2023/08/19 10:38:15;;;;;;;;;;;;;;;;;;6072447;23;20407;-86
2023/08/19 10:40:41;;;;;;;;;;;;;;;;;;6073248;23;20338;-86
2023/08/19 10:43:07;;;;;;;16.88;14.07;;;;;;;;;;6096202;23;19972;-86
2023/08/19 10:46:06;;;;;;;20.02;15.57;;;;;;;;;;6095795;23;20023;-87
2023/08/19 10:48:33;;;;;;;20.13;16.38;;;;;;;;;;6072221;23;20032;-86
2023/08/19 10:50:59;;;;;;;21.23;16.42;;;;;;;;;;6096014;23;20023;-86
2023/08/19 10:53:25;;;;;;;22.90;18.60;;;;;;;;;;6072445;23;20011;-86
2023/08/19 10:55:54;;;;;;;21.17;17.85;;;;;;;;;;6097555;23;20038;-86
2023/08/19 10:58:21;;;;;;;19.95;17.80;;;;;;;;;;6097496;23;20078;-86
2023/08/19 11:00:48;;;;;;;19.90;17.77;;;;;;;;;;6095961;23;20019;-87
2023/08/19 11:03:17;;;;;;;20.38;18.15;;;;;;;;;;6095814;23;20388;-86
2023/08/19 11:05:50;;;;;;;21.05;18.33;;;;;;;;;;6072271;23;20026;-86
2023/08/19 11:08:19;;;;;;;23.60;19.17;;;;;;;;;;6072306;23;20018;-88
2023/08/19 11:10:46;;;;;;;22.75;20.35;;;;;;;;;;6096179;23;20050;-87
2023/08/19 11:13:13;;;;;;;25.38;20.33;;;;;;;;;;6095774;23;20026;-87
2023/08/19 11:15:41;;;;;;;25.08;21.55;;;;;;;;;;6096583;23;20018;-87
2023/08/19 11:18:07;;;;;;;27.90;23.75;;;;;;;;;;6071953;23;20019;-87
2023/08/19 11:20:33;;;;;;;27.88;24.55;;;;;;;;;;6072213;23;20455;-88
2023/08/19 11:23:00;;;;;;;31.20;24.55;;;;;;;;;;6072100;23;20113;-88
2023/08/19 11:25:36;;;;;;;33.85;28.70;;;;;;;;;;6097156;23;20058;-87
2023/08/19 11:28:03;;;;;;;33.47;28.20;;;;;;;;;;6096666;23;20014;-87
2023/08/19 11:30:30;;;;;;;32.05;27.95;;;;;;;;;;6096949;23;20014;-88
2023/08/19 11:32:57;;;;;;;41.42;31.80;;;;;;;;;;6071643;23;20394;-88
2023/08/19 11:35:23;;;;;;;45.72;33.35;;;;;;;;;;6073188;23;20053;-88
2023/08/19 11:37:50;;;;;;;37.92;31.15;;;;;;;;;;6096434;23;20339;-88
2023/08/19 11:40:19;;;;;;;37.97;30.15;;;;;;;;;;6073872;23;20018;-88
2023/08/19 11:42:45;;;;;;;39.92;30.65;;;;;;;;;;6096130;23;20072;-88
2023/08/19 11:45:12;;;;;;;36.40;29.20;;;;;;;;;;6096693;23;20022;-88
2023/08/19 11:47:38;;;;;;;36.53;28.23;;;;;;;;;;6072942;23;20339;-88
2023/08/19 11:50:05;;;;;;;31.60;24.17;;;;;;;;;;6096328;23;20018;-88
2023/08/19 11:52:32;;;;;;;26.60;19.98;;;;;;;;;;6072213;23;20105;-88
2023/08/19 11:55:07;;;;;;;26.92;19.30;;;;;;;;;;6073749;23;20018;-88
2023/08/19 11:57:34;;;;;;;22.77;17.88;;;;;;;;;;6097273;23;20014;-88
2023/08/19 12:00:00;;;;;;;23.70;19.08;;;;;;;;;;6074253;23;20018;-88
2023/08/19 12:02:26;;;;;;;22.95;17.60;;;;;;;;;;6097448;23;20077;-88
2023/08/19 12:04:55;;;;;;;26.00;20.67;;;;;;;;;;6096128;23;20470;-88
2023/08/19 12:07:31;;;;;;;25.33;19.00;;;;;;;;;;6071611;23;20022;-87
2023/08/19 12:10:00;;;;;;;25.50;19.73;;;;;;;;;;6071321;23;20061;-88
2023/08/19 12:12:28;;;;;;;22.83;18.35;;;;;;;;;;6071334;23;20435;-88
2023/08/19 12:14:55;;;;;;;23.85;18.30;;;;;;;;;;6070935;23;20042;-88
2023/08/19 12:17:21;;;;;;;24.40;18.95;;;;;;;;;;6096019;23;20022;-88
2023/08/19 12:19:47;;;;;;;23.70;19.17;;;;;;;;;;6072406;23;20023;-88
2023/08/19 12:22:24;;;;;;;21.17;16.10;;;;;;;;;;6098586;23;20085;-88
2023/08/19 12:24:53;;;;;;;18.77;14.00;;;;;;;;;;6074754;23;20026;-88
2023/08/19 12:27:19;;;;;;;15.32;11.43;;;;;;;;;;6098099;23;20026;-88
2023/08/19 12:29:46;;;;;;;11.40;9.07;;;;;;;;;;6074541;23;20014;-88
2023/08/19 12:32:12;;;;;;;9.38;7.78;;;;;;;;;;6078518;23;20018;-88
2023/08/19 12:34:38;;;;;;;13.98;8.45;;;;;;;;;;6082741;23;20111;-88
2023/08/19 12:37:04;;;;;;;11.52;8.68;;;;;;;;;;6100830;23;20046;-88
2023/08/19 12:39:36;;;;;;;10.48;7.97;;;;;;;;;;6074290;23;20053;-87
2023/08/19 12:42:03;;;;;;;13.07;8.88;;;;;;;;;;6073184;23;20018;-88
2023/08/19 12:44:52;;;;;;;12.75;8.68;;;;;;;;;;6073164;23;20023;-87
2023/08/19 12:47:18;;;;;;;12.05;7.60;;;;;;;;;;5985667;23;20038;-86
2023/08/19 12:49:44;;;;;;;9.90;7.30;;;;;;;;;;6008700;23;20026;-85
2023/08/19 12:52:11;;;;;;;9.27;5.55;;;;;;;;;;5985749;23;20020;-86
2023/08/19 12:54:37;;;;;;;8.32;4.60;;;;;;;;;;5985311;23;20058;-86
2023/08/19 12:57:04;;;;;;;7.10;5.22;;;;;;;;;;6008760;23;20022;-86
2023/08/19 12:59:30;;;;;;;6.60;4.95;;;;;;;;;;5985666;23;20096;-86
2023/08/19 13:01:56;;;;;;;8.57;5.07;;;;;;;;;;6010013;23;20016;-86
2023/08/19 13:04:22;;;;;;;9.27;5.50;;;;;;;;;;5986019;23;20103;-86
2023/08/19 13:06:48;;;;;;;8.13;5.40;;;;;;;;;;6009222;23;20540;-86
2023/08/19 13:09:14;;;;;;;10.18;5.70;;;;;;;;;;5985824;23;20434;-87
2023/08/19 13:11:40;;;;;;;9.95;5.57;;;;;;;;;;6009470;23;20023;-86
2023/08/19 13:14:06;;;;;;;11.55;5.25;;;;;;;;;;5985417;23;20019;-86
2023/08/19 13:16:32;;;;;;;7.43;4.78;;;;;;;;;;5985240;23;20354;-86
2023/08/19 13:19:00;;;;;;;8.32;4.70;;;;;;;;;;6008575;23;20015;-86
2023/08/19 13:21:26;;;;;;;7.00;4.28;;;;;;;;;;6008443;23;20020;-86
2023/08/19 13:23:52;;;;;;;7.88;4.30;;;;;;;;;;6015158;23;20262;-86
2023/08/19 13:26:18;;;;;;;8.65;4.38;;;;;;;;;;6095354;23;20076;-86
2023/08/19 13:28:44;;;;;;;5.03;3.33;;;;;;;;;;6071952;23;20023;-86
2023/08/19 13:31:11;;;;;;;5.75;3.28;;;;;;;;;;6072025;23;20479;-86
2023/08/19 13:33:37;;;;;;;5.47;3.20;;;;;;;;;;6096137;23;20042;-86
2023/08/19 13:36:03;;;;;;;7.82;3.00;;;;;;;;;;6097316;23;20134;-86
2023/08/19 13:38:29;;;;;;;6.38;3.17;;;;;;;;;;6072236;23;20026;-86
2023/08/19 13:40:55;;;;;;;5.30;3.22;;;;;;;;;;6072396;23;20023;-87
2023/08/19 13:43:22;;;;;;;7.70;3.42;;;;;;;;;;6072573;23;20046;-86
2023/08/19 13:45:48;;;;;;;6.60;3.30;;;;;;;;;;6096608;23;20032;-86
2023/08/19 13:48:14;;;;;;;6.80;3.58;;;;;;;;;;6073246;23;20090;-86
2023/08/19 13:50:40;;;;;;;9.05;3.97;;;;;;;;;;6073054;23;20023;-86
2023/08/19 13:53:06;;;;;;;6.03;3.40;;;;;;;;;;6096918;23;20018;-87
2023/08/19 13:55:33;;;;;;;8.73;4.30;;;;;;;;;;6095986;23;20093;-86
2023/08/19 13:57:59;;;;;;;6.30;4.22;;;;;;;;;;6096344;23;20024;-85
2023/08/19 14:00:25;;;;;;;8.82;4.20;;;;;;;;;;6096379;23;20089;-86
2023/08/19 14:02:51;;;;;;;7.43;4.15;;;;;;;;;;6072635;23;20097;-86
2023/08/19 14:05:18;;;;;;;8.65;4.43;;;;;;;;;;6096164;23;20025;-86
2023/08/19 14:07:45;;;;;;;6.55;4.32;;;;;;;;;;6071999;23;20018;-86
2023/08/19 14:10:11;;;;;;;9.15;4.75;;;;;;;;;;6096749;23;20038;-86
2023/08/19 14:12:38;;;;;;;5.80;4.32;;;;;;;;;;6072417;23;20106;-87
2023/08/19 14:15:05;;;;;;;9.35;4.57;;;;;;;;;;6072465;23;20022;-87
2023/08/19 14:17:31;;;;;;;9.02;4.22;;;;;;;;;;6096439;23;20050;-87
2023/08/19 14:19:57;;;;;;;9.82;4.63;;;;;;;;;;6095988;23;20019;-87
2023/08/19 14:22:23;;;;;;;8.85;4.85;;;;;;;;;;6072379;23;20031;-86